Hoboken, Belgium
Current Conditions -  °F | °C
As of 9:50 PM on Friday 19 Dec 2014 (Local Time) from EBAW Reporting Station
Few Clouds Few Clouds  
Wind Chill: 37°   Ceiling: Unl
Heat Index: 43°   Visibility: 6mi
Dew Point: 36°   Wind: 10mph
Humidity: 76%   Direction: 240°WSW
Pressure: 30.12"   Gusts: NA
Location:  51.18°N, 4.35°E
Report Text: EBAW 192050Z 24009KT 9999 FEW045 06/02 Q1020 NOSIG
Loading
Personal Weather Stations






























Interactive Weather Map New forecast layout! Learn more

10-Day Weather Forecast

Advertisements
Track Severe Weather on mobile